sensor_id;sensor_type;location;lat;lon;timestamp;P1;durP1;ratioP1;P2;durP2;ratioP2
76127;SDS011;64873;50.102;14.434;2022-12-18T00:01:21;83.88;;;31.73;;
76127;SDS011;64873;50.102;14.434;2022-12-18T00:03:56;72.97;;;29.58;;
76127;SDS011;64873;50.102;14.434;2022-12-18T00:06:22;74.93;;;31.33;;
76127;SDS011;64873;50.102;14.434;2022-12-18T00:08:48;74.18;;;30.52;;
76127;SDS011;64873;50.102;14.434;2022-12-18T00:11:15;92.53;;;34.25;;
76127;SDS011;64873;50.102;14.434;2022-12-18T00:13:42;70.22;;;30.20;;
76127;SDS011;64873;50.102;14.434;2022-12-18T00:16:09;91.53;;;35.10;;
76127;SDS011;64873;50.102;14.434;2022-12-18T00:18:36;89.25;;;34.65;;
76127;SDS011;64873;50.102;14.434;2022-12-18T00:21:03;91.85;;;35.97;;
76127;SDS011;64873;50.102;14.434;2022-12-18T00:23:31;90.07;;;38.55;;
76127;SDS011;64873;50.102;14.434;2022-12-18T00:26:00;85.30;;;36.55;;
76127;SDS011;64873;50.102;14.434;2022-12-18T00:28:26;80.05;;;32.15;;
76127;SDS011;64873;50.102;14.434;2022-12-18T00:31:02;66.28;;;28.50;;
76127;SDS011;64873;50.102;14.434;2022-12-18T00:33:32;56.35;;;23.98;;
76127;SDS011;64873;50.102;14.434;2022-12-18T00:36:07;63.40;;;27.20;;
76127;SDS011;64873;50.102;14.434;2022-12-18T00:38:35;69.32;;;28.55;;
76127;SDS011;64873;50.102;14.434;2022-12-18T00:41:02;53.50;;;20.98;;
76127;SDS011;64873;50.102;14.434;2022-12-18T00:43:28;60.95;;;23.20;;
76127;SDS011;64873;50.102;14.434;2022-12-18T00:45:53;85.25;;;32.10;;
76127;SDS011;64873;50.102;14.434;2022-12-18T00:48:19;60.72;;;24.80;;
76127;SDS011;64873;50.102;14.434;2022-12-18T00:50:45;73.97;;;30.17;;
76127;SDS011;64873;50.102;14.434;2022-12-18T00:53:10;85.10;;;30.08;;
76127;SDS011;64873;50.102;14.434;2022-12-18T00:55:37;81.03;;;30.10;;
76127;SDS011;64873;50.102;14.434;2022-12-18T00:58:04;72.72;;;28.60;;
76127;SDS011;64873;50.102;14.434;2022-12-18T01:00:29;60.03;;;25.58;;
76127;SDS011;64873;50.102;14.434;2022-12-18T01:02:55;73.05;;;29.92;;
76127;SDS011;64873;50.102;14.434;2022-12-18T01:05:20;84.53;;;34.95;;
76127;SDS011;64873;50.102;14.434;2022-12-18T01:07:45;96.53;;;36.33;;
76127;SDS011;64873;50.102;14.434;2022-12-18T01:10:11;85.38;;;34.17;;
76127;SDS011;64873;50.102;14.434;2022-12-18T01:12:37;99.10;;;37.17;;
76127;SDS011;64873;50.102;14.434;2022-12-18T01:15:04;97.57;;;38.65;;
76127;SDS011;64873;50.102;14.434;2022-12-18T01:17:30;100.53;;;38.85;;
76127;SDS011;64873;50.102;14.434;2022-12-18T01:19:55;114.35;;;44.55;;
76127;SDS011;64873;50.102;14.434;2022-12-18T01:22:21;119.13;;;44.25;;
76127;SDS011;64873;50.102;14.434;2022-12-18T01:24:46;107.03;;;37.90;;
76127;SDS011;64873;50.102;14.434;2022-12-18T01:27:11;102.05;;;39.25;;
76127;SDS011;64873;50.102;14.434;2022-12-18T01:29:37;104.90;;;38.92;;
76127;SDS011;64873;50.102;14.434;2022-12-18T01:32:02;82.10;;;32.58;;
76127;SDS011;64873;50.102;14.434;2022-12-18T01:34:28;97.13;;;38.15;;
76127;SDS011;64873;50.102;14.434;2022-12-18T01:36:53;89.40;;;34.10;;
76127;SDS011;64873;50.102;14.434;2022-12-18T01:39:18;90.30;;;36.90;;
76127;SDS011;64873;50.102;14.434;2022-12-18T01:41:44;110.60;;;42.17;;
76127;SDS011;64873;50.102;14.434;2022-12-18T01:49:51;135.55;;;46.05;;
76127;SDS011;64873;50.102;14.434;2022-12-18T01:52:18;120.95;;;43.60;;
76127;SDS011;64873;50.102;14.434;2022-12-18T01:54:45;95.88;;;35.55;;
76127;SDS011;64873;50.102;14.434;2022-12-18T01:57:12;106.47;;;37.60;;
76127;SDS011;64873;50.102;14.434;2022-12-18T01:59:37;122.32;;;47.85;;
76127;SDS011;64873;50.102;14.434;2022-12-18T02:02:06;122.97;;;50.28;;
76127;SDS011;64873;50.102;14.434;2022-12-18T02:04:33;105.70;;;42.63;;
76127;SDS011;64873;50.102;14.434;2022-12-18T02:09:34;108.05;;;45.03;;
76127;SDS011;64873;50.102;14.434;2022-12-18T02:14:45;94.47;;;40.28;;
76127;SDS011;64873;50.102;14.434;2022-12-18T02:17:30;128.27;;;53.47;;
76127;SDS011;64873;50.102;14.434;2022-12-18T02:28:17;95.22;;;39.88;;
76127;SDS011;64873;50.102;14.434;2022-12-18T02:30:47;111.53;;;48.15;;
76127;SDS011;64873;50.102;14.434;2022-12-18T02:33:15;102.80;;;41.45;;
76127;SDS011;64873;50.102;14.434;2022-12-18T02:35:44;122.10;;;51.95;;
76127;SDS011;64873;50.102;14.434;2022-12-18T02:38:10;104.03;;;43.42;;
76127;SDS011;64873;50.102;14.434;2022-12-18T02:40:37;113.50;;;48.83;;
76127;SDS011;64873;50.102;14.434;2022-12-18T02:43:09;108.97;;;45.50;;
76127;SDS011;64873;50.102;14.434;2022-12-18T02:45:45;88.55;;;36.53;;
76127;SDS011;64873;50.102;14.434;2022-12-18T02:48:26;106.82;;;43.20;;
76127;SDS011;64873;50.102;14.434;2022-12-18T02:51:03;106.75;;;45.63;;
76127;SDS011;64873;50.102;14.434;2022-12-18T02:53:45;92.50;;;37.80;;
76127;SDS011;64873;50.102;14.434;2022-12-18T02:56:30;93.40;;;37.88;;
76127;SDS011;64873;50.102;14.434;2022-12-18T02:59:07;89.68;;;36.25;;
76127;SDS011;64873;50.102;14.434;2022-12-18T03:01:43;108.90;;;43.70;;
76127;SDS011;64873;50.102;14.434;2022-12-18T03:04:38;91.57;;;35.72;;
76127;SDS011;64873;50.102;14.434;2022-12-18T03:07:15;99.20;;;40.28;;
76127;SDS011;64873;50.102;14.434;2022-12-18T03:09:46;101.65;;;38.28;;
76127;SDS011;64873;50.102;14.434;2022-12-18T03:12:18;103.40;;;43.42;;
76127;SDS011;64873;50.102;14.434;2022-12-18T03:15:35;115.97;;;44.75;;
76127;SDS011;64873;50.102;14.434;2022-12-18T03:17:55;94.30;;;37.28;;
76127;SDS011;64873;50.102;14.434;2022-12-18T03:20:26;98.30;;;40.30;;
76127;SDS011;64873;50.102;14.434;2022-12-18T03:22:57;104.00;;;38.40;;
76127;SDS011;64873;50.102;14.434;2022-12-18T03:25:32;79.28;;;30.77;;
76127;SDS011;64873;50.102;14.434;2022-12-18T03:27:59;97.40;;;38.38;;
76127;SDS011;64873;50.102;14.434;2022-12-18T03:30:27;119.65;;;46.83;;
76127;SDS011;64873;50.102;14.434;2022-12-18T03:35:44;121.97;;;47.85;;
76127;SDS011;64873;50.102;14.434;2022-12-18T03:38:10;105.43;;;39.15;;
76127;SDS011;64873;50.102;14.434;2022-12-18T03:40:45;111.20;;;40.30;;
76127;SDS011;64873;50.102;14.434;2022-12-18T03:43:29;114.85;;;44.22;;
76127;SDS011;64873;50.102;14.434;2022-12-18T03:46:04;118.57;;;43.20;;
76127;SDS011;64873;50.102;14.434;2022-12-18T03:48:41;146.95;;;55.47;;
76127;SDS011;64873;50.102;14.434;2022-12-18T03:51:24;105.45;;;37.25;;
76127;SDS011;64873;50.102;14.434;2022-12-18T03:53:57;98.78;;;36.17;;
76127;SDS011;64873;50.102;14.434;2022-12-18T03:56:26;122.53;;;41.60;;
76127;SDS011;64873;50.102;14.434;2022-12-18T03:58:56;132.82;;;49.05;;
76127;SDS011;64873;50.102;14.434;2022-12-18T04:01:31;123.95;;;45.55;;
76127;SDS011;64873;50.102;14.434;2022-12-18T04:04:00;137.05;;;50.38;;
76127;SDS011;64873;50.102;14.434;2022-12-18T04:06:27;138.02;;;50.83;;
76127;SDS011;64873;50.102;14.434;2022-12-18T04:08:53;134.95;;;48.28;;
76127;SDS011;64873;50.102;14.434;2022-12-18T04:11:19;139.60;;;48.38;;
76127;SDS011;64873;50.102;14.434;2022-12-18T04:13:44;123.55;;;44.45;;
76127;SDS011;64873;50.102;14.434;2022-12-18T04:16:10;135.25;;;50.80;;
76127;SDS011;64873;50.102;14.434;2022-12-18T04:18:35;73.70;;;26.45;;
76127;SDS011;64873;50.102;14.434;2022-12-18T04:21:02;120.45;;;46.55;;
76127;SDS011;64873;50.102;14.434;2022-12-18T04:23:27;127.55;;;45.38;;
76127;SDS011;64873;50.102;14.434;2022-12-18T04:25:53;139.45;;;50.42;;
76127;SDS011;64873;50.102;14.434;2022-12-18T04:28:19;129.68;;;46.05;;
76127;SDS011;64873;50.102;14.434;2022-12-18T04:30:45;119.15;;;45.85;;
76127;SDS011;64873;50.102;14.434;2022-12-18T04:33:10;136.57;;;50.60;;
76127;SDS011;64873;50.102;14.434;2022-12-18T04:35:38;130.45;;;46.22;;
76127;SDS011;64873;50.102;14.434;2022-12-18T04:38:05;131.93;;;48.13;;
76127;SDS011;64873;50.102;14.434;2022-12-18T04:40:32;84.05;;;28.85;;
76127;SDS011;64873;50.102;14.434;2022-12-18T04:42:57;120.18;;;43.17;;
76127;SDS011;64873;50.102;14.434;2022-12-18T04:45:22;131.05;;;49.33;;
76127;SDS011;64873;50.102;14.434;2022-12-18T04:47:47;117.53;;;42.45;;
76127;SDS011;64873;50.102;14.434;2022-12-18T04:50:13;107.13;;;37.58;;
76127;SDS011;64873;50.102;14.434;2022-12-18T04:52:38;118.95;;;40.13;;
76127;SDS011;64873;50.102;14.434;2022-12-18T04:55:04;123.07;;;43.45;;
76127;SDS011;64873;50.102;14.434;2022-12-18T04:57:29;112.35;;;42.83;;
76127;SDS011;64873;50.102;14.434;2022-12-18T04:59:55;115.03;;;45.30;;
76127;SDS011;64873;50.102;14.434;2022-12-18T05:02:20;99.47;;;35.28;;
76127;SDS011;64873;50.102;14.434;2022-12-18T05:04:45;98.63;;;39.20;;
76127;SDS011;64873;50.102;14.434;2022-12-18T05:07:11;91.30;;;33.72;;
76127;SDS011;64873;50.102;14.434;2022-12-18T05:09:36;102.93;;;38.20;;
76127;SDS011;64873;50.102;14.434;2022-12-18T05:12:01;102.85;;;39.42;;
76127;SDS011;64873;50.102;14.434;2022-12-18T05:14:27;110.85;;;40.38;;
76127;SDS011;64873;50.102;14.434;2022-12-18T05:16:54;117.88;;;43.53;;
76127;SDS011;64873;50.102;14.434;2022-12-18T05:19:19;96.70;;;37.60;;
76127;SDS011;64873;50.102;14.434;2022-12-18T05:21:44;103.28;;;39.53;;
76127;SDS011;64873;50.102;14.434;2022-12-18T05:24:10;104.07;;;39.97;;
76127;SDS011;64873;50.102;14.434;2022-12-18T05:26:35;95.07;;;36.40;;
76127;SDS011;64873;50.102;14.434;2022-12-18T05:29:00;101.75;;;37.50;;
76127;SDS011;64873;50.102;14.434;2022-12-18T05:31:26;105.57;;;38.85;;
76127;SDS011;64873;50.102;14.434;2022-12-18T05:33:51;69.22;;;29.27;;
76127;SDS011;64873;50.102;14.434;2022-12-18T05:36:16;96.40;;;38.38;;
76127;SDS011;64873;50.102;14.434;2022-12-18T05:38:42;103.95;;;40.42;;
76127;SDS011;64873;50.102;14.434;2022-12-18T05:41:08;96.80;;;34.38;;
76127;SDS011;64873;50.102;14.434;2022-12-18T05:43:37;93.88;;;38.40;;
76127;SDS011;64873;50.102;14.434;2022-12-18T05:46:04;99.82;;;41.08;;
76127;SDS011;64873;50.102;14.434;2022-12-18T05:48:30;84.72;;;35.35;;
76127;SDS011;64873;50.102;14.434;2022-12-18T05:50:55;94.35;;;37.20;;
76127;SDS011;64873;50.102;14.434;2022-12-18T05:53:27;77.87;;;29.37;;
76127;SDS011;64873;50.102;14.434;2022-12-18T05:55:52;82.55;;;33.97;;
76127;SDS011;64873;50.102;14.434;2022-12-18T05:58:18;90.68;;;37.40;;
76127;SDS011;64873;50.102;14.434;2022-12-18T06:00:44;77.38;;;30.10;;
76127;SDS011;64873;50.102;14.434;2022-12-18T06:03:11;87.43;;;34.97;;
76127;SDS011;64873;50.102;14.434;2022-12-18T06:05:41;72.90;;;29.15;;
76127;SDS011;64873;50.102;14.434;2022-12-18T06:08:08;83.43;;;33.13;;
76127;SDS011;64873;50.102;14.434;2022-12-18T06:10:34;69.80;;;28.73;;
76127;SDS011;64873;50.102;14.434;2022-12-18T06:13:00;73.38;;;29.23;;
76127;SDS011;64873;50.102;14.434;2022-12-18T06:15:26;79.38;;;32.17;;
76127;SDS011;64873;50.102;14.434;2022-12-18T06:17:51;76.90;;;31.55;;
76127;SDS011;64873;50.102;14.434;2022-12-18T06:20:16;77.38;;;30.50;;
76127;SDS011;64873;50.102;14.434;2022-12-18T06:22:42;65.55;;;25.88;;
76127;SDS011;64873;50.102;14.434;2022-12-18T06:25:07;71.88;;;28.08;;
76127;SDS011;64873;50.102;14.434;2022-12-18T06:27:33;76.65;;;29.00;;
76127;SDS011;64873;50.102;14.434;2022-12-18T06:29:58;79.97;;;29.65;;
76127;SDS011;64873;50.102;14.434;2022-12-18T06:32:24;67.03;;;26.20;;
76127;SDS011;64873;50.102;14.434;2022-12-18T06:34:50;67.68;;;26.30;;
76127;SDS011;64873;50.102;14.434;2022-12-18T06:37:15;80.90;;;28.20;;
76127;SDS011;64873;50.102;14.434;2022-12-18T06:39:41;85.50;;;29.75;;
76127;SDS011;64873;50.102;14.434;2022-12-18T06:42:06;75.22;;;26.77;;
76127;SDS011;64873;50.102;14.434;2022-12-18T06:44:31;79.10;;;27.65;;
76127;SDS011;64873;50.102;14.434;2022-12-18T06:46:57;73.30;;;28.55;;
76127;SDS011;64873;50.102;14.434;2022-12-18T06:49:22;82.60;;;29.23;;
76127;SDS011;64873;50.102;14.434;2022-12-18T06:51:47;76.55;;;28.30;;
76127;SDS011;64873;50.102;14.434;2022-12-18T06:54:13;86.57;;;31.13;;
76127;SDS011;64873;50.102;14.434;2022-12-18T06:56:38;77.72;;;28.73;;
76127;SDS011;64873;50.102;14.434;2022-12-18T06:59:03;82.43;;;30.00;;
76127;SDS011;64873;50.102;14.434;2022-12-18T07:01:29;77.38;;;26.52;;
76127;SDS011;64873;50.102;14.434;2022-12-18T07:03:55;79.65;;;30.50;;
76127;SDS011;64873;50.102;14.434;2022-12-18T07:06:22;73.55;;;27.25;;
76127;SDS011;64873;50.102;14.434;2022-12-18T07:08:49;83.10;;;29.75;;
76127;SDS011;64873;50.102;14.434;2022-12-18T07:11:15;82.35;;;29.40;;
76127;SDS011;64873;50.102;14.434;2022-12-18T07:13:41;69.05;;;24.55;;
76127;SDS011;64873;50.102;14.434;2022-12-18T07:16:08;78.28;;;28.33;;
76127;SDS011;64873;50.102;14.434;2022-12-18T07:18:36;72.18;;;24.70;;
76127;SDS011;64873;50.102;14.434;2022-12-18T07:21:05;62.95;;;22.27;;
76127;SDS011;64873;50.102;14.434;2022-12-18T07:23:32;51.92;;;19.88;;
76127;SDS011;64873;50.102;14.434;2022-12-18T07:26:05;66.80;;;21.90;;
76127;SDS011;64873;50.102;14.434;2022-12-18T07:28:33;69.93;;;24.08;;
76127;SDS011;64873;50.102;14.434;2022-12-18T07:31:02;61.70;;;20.13;;
76127;SDS011;64873;50.102;14.434;2022-12-18T07:33:28;50.03;;;16.98;;
76127;SDS011;64873;50.102;14.434;2022-12-18T07:35:54;48.90;;;18.40;;
76127;SDS011;64873;50.102;14.434;2022-12-18T07:38:20;51.15;;;19.15;;
76127;SDS011;64873;50.102;14.434;2022-12-18T07:40:45;49.65;;;16.98;;
76127;SDS011;64873;50.102;14.434;2022-12-18T07:43:10;60.45;;;19.88;;
76127;SDS011;64873;50.102;14.434;2022-12-18T07:45:36;51.58;;;18.08;;
76127;SDS011;64873;50.102;14.434;2022-12-18T07:48:01;48.80;;;16.52;;
76127;SDS011;64873;50.102;14.434;2022-12-18T07:50:26;62.88;;;23.02;;
76127;SDS011;64873;50.102;14.434;2022-12-18T07:52:52;66.28;;;21.52;;
76127;SDS011;64873;50.102;14.434;2022-12-18T07:55:17;69.57;;;23.75;;
76127;SDS011;64873;50.102;14.434;2022-12-18T07:57:42;74.40;;;25.65;;
76127;SDS011;64873;50.102;14.434;2022-12-18T08:00:08;75.90;;;25.17;;
76127;SDS011;64873;50.102;14.434;2022-12-18T08:02:34;73.07;;;22.40;;
76127;SDS011;64873;50.102;14.434;2022-12-18T08:04:59;56.33;;;19.33;;
76127;SDS011;64873;50.102;14.434;2022-12-18T08:07:24;38.35;;;15.07;;
76127;SDS011;64873;50.102;14.434;2022-12-18T08:09:50;59.70;;;21.67;;
76127;SDS011;64873;50.102;14.434;2022-12-18T08:12:15;53.00;;;19.67;;
76127;SDS011;64873;50.102;14.434;2022-12-18T08:14:40;49.53;;;18.30;;
76127;SDS011;64873;50.102;14.434;2022-12-18T08:17:06;56.15;;;19.20;;
76127;SDS011;64873;50.102;14.434;2022-12-18T08:19:31;56.90;;;19.33;;
76127;SDS011;64873;50.102;14.434;2022-12-18T08:21:56;35.55;;;13.18;;
76127;SDS011;64873;50.102;14.434;2022-12-18T08:24:22;59.28;;;22.38;;
76127;SDS011;64873;50.102;14.434;2022-12-18T08:26:47;53.58;;;19.75;;
76127;SDS011;64873;50.102;14.434;2022-12-18T08:29:13;56.10;;;19.73;;
76127;SDS011;64873;50.102;14.434;2022-12-18T08:31:38;60.38;;;20.50;;
76127;SDS011;64873;50.102;14.434;2022-12-18T08:34:03;53.13;;;19.30;;
76127;SDS011;64873;50.102;14.434;2022-12-18T08:36:29;56.50;;;20.58;;
76127;SDS011;64873;50.102;14.434;2022-12-18T08:38:54;60.75;;;21.42;;
76127;SDS011;64873;50.102;14.434;2022-12-18T08:41:20;58.28;;;20.10;;
76127;SDS011;64873;50.102;14.434;2022-12-18T08:43:45;66.82;;;22.40;;
76127;SDS011;64873;50.102;14.434;2022-12-18T08:46:37;59.63;;;21.08;;
76127;SDS011;64873;50.102;14.434;2022-12-18T08:49:04;57.88;;;21.55;;
76127;SDS011;64873;50.102;14.434;2022-12-18T08:51:30;50.08;;;17.95;;
76127;SDS011;64873;50.102;14.434;2022-12-18T08:53:55;61.15;;;20.23;;
76127;SDS011;64873;50.102;14.434;2022-12-18T08:56:21;53.95;;;17.98;;
76127;SDS011;64873;50.102;14.434;2022-12-18T08:58:46;57.72;;;20.67;;
76127;SDS011;64873;50.102;14.434;2022-12-18T09:01:12;56.10;;;20.77;;
76127;SDS011;64873;50.102;14.434;2022-12-18T09:03:38;57.83;;;19.20;;
76127;SDS011;64873;50.102;14.434;2022-12-18T09:06:04;51.20;;;20.20;;
76127;SDS011;64873;50.102;14.434;2022-12-18T09:08:30;56.20;;;21.42;;
76127;SDS011;64873;50.102;14.434;2022-12-18T09:10:55;49.22;;;18.33;;
76127;SDS011;64873;50.102;14.434;2022-12-18T09:13:21;52.35;;;20.52;;
76127;SDS011;64873;50.102;14.434;2022-12-18T09:15:49;55.70;;;19.85;;
76127;SDS011;64873;50.102;14.434;2022-12-18T09:18:16;45.22;;;18.70;;
76127;SDS011;64873;50.102;14.434;2022-12-18T09:20:43;49.90;;;18.98;;
76127;SDS011;64873;50.102;14.434;2022-12-18T09:23:09;47.80;;;17.75;;
76127;SDS011;64873;50.102;14.434;2022-12-18T09:25:35;44.30;;;15.98;;
76127;SDS011;64873;50.102;14.434;2022-12-18T09:28:01;43.53;;;14.05;;
76127;SDS011;64873;50.102;14.434;2022-12-18T09:30:28;36.67;;;14.77;;
76127;SDS011;64873;50.102;14.434;2022-12-18T09:32:55;40.85;;;15.60;;
76127;SDS011;64873;50.102;14.434;2022-12-18T09:35:20;33.47;;;13.52;;
76127;SDS011;64873;50.102;14.434;2022-12-18T09:37:46;37.88;;;15.38;;
76127;SDS011;64873;50.102;14.434;2022-12-18T09:40:21;43.80;;;18.80;;
76127;SDS011;64873;50.102;14.434;2022-12-18T09:42:51;33.95;;;13.82;;
76127;SDS011;64873;50.102;14.434;2022-12-18T09:45:20;40.58;;;16.30;;
76127;SDS011;64873;50.102;14.434;2022-12-18T09:47:49;29.98;;;12.05;;
76127;SDS011;64873;50.102;14.434;2022-12-18T09:50:22;30.80;;;12.25;;
76127;SDS011;64873;50.102;14.434;2022-12-18T09:52:49;37.67;;;13.40;;
76127;SDS011;64873;50.102;14.434;2022-12-18T09:57:57;35.50;;;14.45;;
76127;SDS011;64873;50.102;14.434;2022-12-18T10:00:27;40.55;;;15.35;;
76127;SDS011;64873;50.102;14.434;2022-12-18T10:02:56;38.70;;;14.55;;
76127;SDS011;64873;50.102;14.434;2022-12-18T10:05:36;42.80;;;15.18;;
76127;SDS011;64873;50.102;14.434;2022-12-18T10:13:52;36.03;;;13.75;;
76127;SDS011;64873;50.102;14.434;2022-12-18T10:22:26;35.50;;;13.98;;
76127;SDS011;64873;50.102;14.434;2022-12-18T10:24:55;39.17;;;15.05;;
76127;SDS011;64873;50.102;14.434;2022-12-18T10:27:31;34.97;;;13.43;;
76127;SDS011;64873;50.102;14.434;2022-12-18T10:29:57;36.28;;;13.77;;
76127;SDS011;64873;50.102;14.434;2022-12-18T10:32:24;37.47;;;16.10;;
76127;SDS011;64873;50.102;14.434;2022-12-18T10:34:54;40.50;;;15.48;;
76127;SDS011;64873;50.102;14.434;2022-12-18T10:37:23;46.15;;;17.75;;
76127;SDS011;64873;50.102;14.434;2022-12-18T10:40:09;32.85;;;14.50;;
76127;SDS011;64873;50.102;14.434;2022-12-18T10:42:40;38.58;;;13.98;;
76127;SDS011;64873;50.102;14.434;2022-12-18T10:45:14;42.80;;;16.90;;
76127;SDS011;64873;50.102;14.434;2022-12-18T10:47:43;42.20;;;17.38;;
76127;SDS011;64873;50.102;14.434;2022-12-18T10:50:45;31.65;;;12.70;;
76127;SDS011;64873;50.102;14.434;2022-12-18T10:53:03;42.67;;;16.38;;
76127;SDS011;64873;50.102;14.434;2022-12-18T10:55:31;47.05;;;17.08;;
76127;SDS011;64873;50.102;14.434;2022-12-18T10:58:44;46.25;;;18.55;;
76127;SDS011;64873;50.102;14.434;2022-12-18T11:00:44;37.78;;;15.55;;
76127;SDS011;64873;50.102;14.434;2022-12-18T11:03:33;45.17;;;17.25;;
76127;SDS011;64873;50.102;14.434;2022-12-18T11:06:09;38.33;;;13.88;;
76127;SDS011;64873;50.102;14.434;2022-12-18T11:08:35;43.53;;;15.52;;
76127;SDS011;64873;50.102;14.434;2022-12-18T11:11:01;45.13;;;17.50;;
76127;SDS011;64873;50.102;14.434;2022-12-18T11:13:28;48.42;;;18.38;;
76127;SDS011;64873;50.102;14.434;2022-12-18T11:15:55;48.05;;;17.95;;
76127;SDS011;64873;50.102;14.434;2022-12-18T11:18:26;47.55;;;18.75;;
76127;SDS011;64873;50.102;14.434;2022-12-18T11:20:58;53.22;;;19.10;;
76127;SDS011;64873;50.102;14.434;2022-12-18T11:23:30;44.63;;;17.92;;
76127;SDS011;64873;50.102;14.434;2022-12-18T11:25:57;40.58;;;14.98;;
76127;SDS011;64873;50.102;14.434;2022-12-18T11:28:28;49.28;;;19.17;;
76127;SDS011;64873;50.102;14.434;2022-12-18T11:34:05;48.08;;;17.95;;
76127;SDS011;64873;50.102;14.434;2022-12-18T11:36:39;47.88;;;18.25;;
76127;SDS011;64873;50.102;14.434;2022-12-18T11:39:22;55.47;;;19.70;;
76127;SDS011;64873;50.102;14.434;2022-12-18T11:41:50;47.35;;;19.25;;
76127;SDS011;64873;50.102;14.434;2022-12-18T11:50:01;58.13;;;21.35;;
76127;SDS011;64873;50.102;14.434;2022-12-18T11:52:34;42.45;;;14.60;;
76127;SDS011;64873;50.102;14.434;2022-12-18T11:55:14;60.92;;;24.27;;
76127;SDS011;64873;50.102;14.434;2022-12-18T11:57:52;49.83;;;19.15;;
76127;SDS011;64873;50.102;14.434;2022-12-18T12:00:54;59.22;;;22.85;;
76127;SDS011;64873;50.102;14.434;2022-12-18T12:11:31;61.03;;;21.77;;
76127;SDS011;64873;50.102;14.434;2022-12-18T12:16:57;52.85;;;19.75;;
76127;SDS011;64873;50.102;14.434;2022-12-18T12:19:27;60.45;;;20.95;;
76127;SDS011;64873;50.102;14.434;2022-12-18T12:30:32;64.40;;;22.58;;
76127;SDS011;64873;50.102;14.434;2022-12-18T12:38:55;68.18;;;24.10;;
76127;SDS011;64873;50.102;14.434;2022-12-18T12:41:25;61.83;;;22.40;;
76127;SDS011;64873;50.102;14.434;2022-12-18T12:44:15;65.55;;;23.27;;
76127;SDS011;64873;50.102;14.434;2022-12-18T12:46:45;69.90;;;26.63;;
76127;SDS011;64873;50.102;14.434;2022-12-18T12:49:14;69.32;;;25.52;;
76127;SDS011;64873;50.102;14.434;2022-12-18T12:52:26;73.80;;;24.77;;
76127;SDS011;64873;50.102;14.434;2022-12-18T12:54:39;53.90;;;19.33;;
76127;SDS011;64873;50.102;14.434;2022-12-18T13:02:41;59.67;;;23.73;;
76127;SDS011;64873;50.102;14.434;2022-12-18T13:07:45;41.85;;;13.73;;
76127;SDS011;64873;50.102;14.434;2022-12-18T13:10:31;59.40;;;23.95;;
76127;SDS011;64873;50.102;14.434;2022-12-18T13:12:59;69.60;;;25.98;;
76127;SDS011;64873;50.102;14.434;2022-12-18T13:20:39;47.38;;;16.85;;
76127;SDS011;64873;50.102;14.434;2022-12-18T13:25:49;72.40;;;26.88;;
76127;SDS011;64873;50.102;14.434;2022-12-18T13:28:49;67.05;;;24.67;;
76127;SDS011;64873;50.102;14.434;2022-12-18T13:31:57;56.83;;;22.25;;
76127;SDS011;64873;50.102;14.434;2022-12-18T13:36:47;66.00;;;25.52;;
76127;SDS011;64873;50.102;14.434;2022-12-18T13:41:43;58.67;;;22.17;;
76127;SDS011;64873;50.102;14.434;2022-12-18T13:46:59;65.38;;;24.60;;
76127;SDS011;64873;50.102;14.434;2022-12-18T13:52:16;71.72;;;26.35;;
76127;SDS011;64873;50.102;14.434;2022-12-18T13:54:45;50.83;;;18.98;;
76127;SDS011;64873;50.102;14.434;2022-12-18T13:57:29;49.83;;;19.30;;
76127;SDS011;64873;50.102;14.434;2022-12-18T14:02:59;57.05;;;21.95;;
76127;SDS011;64873;50.102;14.434;2022-12-18T14:05:28;47.17;;;18.55;;
76127;SDS011;64873;50.102;14.434;2022-12-18T14:07:59;51.20;;;20.20;;
76127;SDS011;64873;50.102;14.434;2022-12-18T14:10:26;53.40;;;21.75;;
76127;SDS011;64873;50.102;14.434;2022-12-18T14:12:52;54.88;;;21.90;;
76127;SDS011;64873;50.102;14.434;2022-12-18T14:18:09;55.10;;;22.77;;
76127;SDS011;64873;50.102;14.434;2022-12-18T14:20:39;60.08;;;22.40;;
76127;SDS011;64873;50.102;14.434;2022-12-18T14:23:24;56.90;;;22.92;;
76127;SDS011;64873;50.102;14.434;2022-12-18T14:25:59;45.67;;;19.25;;
76127;SDS011;64873;50.102;14.434;2022-12-18T14:28:26;64.43;;;25.38;;
76127;SDS011;64873;50.102;14.434;2022-12-18T14:30:52;66.53;;;25.38;;
76127;SDS011;64873;50.102;14.434;2022-12-18T14:33:19;61.13;;;21.58;;
76127;SDS011;64873;50.102;14.434;2022-12-18T14:38:35;51.03;;;19.98;;
76127;SDS011;64873;50.102;14.434;2022-12-18T14:43:35;62.00;;;24.13;;
76127;SDS011;64873;50.102;14.434;2022-12-18T14:46:02;47.45;;;18.63;;
76127;SDS011;64873;50.102;14.434;2022-12-18T14:48:39;50.80;;;20.50;;
76127;SDS011;64873;50.102;14.434;2022-12-18T14:51:12;60.90;;;21.67;;
76127;SDS011;64873;50.102;14.434;2022-12-18T14:53:43;55.95;;;21.30;;
76127;SDS011;64873;50.102;14.434;2022-12-18T14:56:20;51.63;;;17.83;;
76127;SDS011;64873;50.102;14.434;2022-12-18T14:58:51;56.85;;;22.67;;
76127;SDS011;64873;50.102;14.434;2022-12-18T15:01:25;55.30;;;19.83;;
76127;SDS011;64873;50.102;14.434;2022-12-18T15:04:23;55.92;;;23.10;;
76127;SDS011;64873;50.102;14.434;2022-12-18T15:07:02;31.07;;;14.47;;
76127;SDS011;64873;50.102;14.434;2022-12-18T15:09:44;50.30;;;20.52;;
76127;SDS011;64873;50.102;14.434;2022-12-18T15:12:38;57.17;;;22.73;;
76127;SDS011;64873;50.102;14.434;2022-12-18T15:15:44;57.72;;;24.15;;
76127;SDS011;64873;50.102;14.434;2022-12-18T15:20:32;33.05;;;13.23;;
76127;SDS011;64873;50.102;14.434;2022-12-18T15:23:05;59.10;;;25.08;;
76127;SDS011;64873;50.102;14.434;2022-12-18T15:28:03;49.05;;;20.00;;
76127;SDS011;64873;50.102;14.434;2022-12-18T15:30:40;48.70;;;19.52;;
76127;SDS011;64873;50.102;14.434;2022-12-18T15:33:24;49.80;;;21.15;;
76127;SDS011;64873;50.102;14.434;2022-12-18T15:36:03;49.53;;;19.52;;
76127;SDS011;64873;50.102;14.434;2022-12-18T15:38:30;67.93;;;28.33;;
76127;SDS011;64873;50.102;14.434;2022-12-18T15:40:56;43.60;;;17.35;;
76127;SDS011;64873;50.102;14.434;2022-12-18T15:43:22;60.05;;;25.13;;
76127;SDS011;64873;50.102;14.434;2022-12-18T15:48:47;52.47;;;21.95;;
76127;SDS011;64873;50.102;14.434;2022-12-18T15:51:16;52.03;;;21.33;;
76127;SDS011;64873;50.102;14.434;2022-12-18T15:53:41;48.20;;;19.85;;
76127;SDS011;64873;50.102;14.434;2022-12-18T15:56:11;56.60;;;23.48;;
76127;SDS011;64873;50.102;14.434;2022-12-18T15:58:56;56.70;;;22.13;;
76127;SDS011;64873;50.102;14.434;2022-12-18T16:01:30;58.08;;;21.85;;
76127;SDS011;64873;50.102;14.434;2022-12-18T16:03:56;57.35;;;22.17;;
76127;SDS011;64873;50.102;14.434;2022-12-18T16:06:22;58.78;;;24.52;;
76127;SDS011;64873;50.102;14.434;2022-12-18T16:08:48;59.38;;;22.17;;
76127;SDS011;64873;50.102;14.434;2022-12-18T16:14:03;48.63;;;19.85;;
76127;SDS011;64873;50.102;14.434;2022-12-18T16:16:36;56.17;;;22.33;;
76127;SDS011;64873;50.102;14.434;2022-12-18T16:19:01;61.20;;;23.75;;